Des Moines (DSM/KDSM)

Map

Destinations

Information

Location
Des Moines, IA
Local Time
06:48 / 6:48 am
GMT Time
12:48 / 12:48 pm
Gates
Unassigned
No FAA reported delays
METAR KDSM 161154Z 10006KT 2 1/2SM -FZRA BR OVC003 00/M01 A3011 RMK AO2 TWR VIS 3 SLP205 P0001 60008 70018 I1001 I6009 T00001011 10000 21006 58017
TAF KDSM 161129Z 1612/1712 10006KT 3SM -FZRA OVC004 FM161500 08007KT 1 1/2SM FZRA OVC003 FM161900 08007KT 1 1/2SM RA OVC003 FM170400 36006KT 2SM BR OVC003 FM170600 34006KT P6SM OVC003
  • No charts available